Time;durP1;ratioP1;P1;durP2;ratioP2;P2;SDS_P1;SDS_P2;PMS_P1;PMS_P2;Temp;Humidity;BMP_temperature;BMP_pressure;BME280_temperature;BME280_humidity;BME280_pressure;Samples;Min_cycle;Max_cycle;Signal;HPM_P1;HPM_P2
2022/09/21 00:00:37;;;;;;;8.00;3.90;;;8.40;93.10;;;;;;5038510;28;20189;-72
2022/09/21 00:03:03;;;;;;;10.47;4.93;;;8.50;93.30;;;;;;5039695;28;20234;-70
2022/09/21 00:05:29;;;;;;;8.37;4.77;;;8.50;93.30;;;;;;5041618;28;20473;-72
2022/09/21 00:07:58;;;;;;;11.80;5.40;;;8.50;93.20;;;;;;5049726;28;20859;-71
2022/09/21 00:10:23;;;;;;;7.67;4.40;;;8.40;93.20;;;;;;5040989;28;20479;-71
2022/09/21 00:12:49;;;;;;;8.27;5.03;;;8.40;93.40;;;;;;5046339;28;20489;-70
2022/09/21 00:15:19;;;;;;;10.07;4.80;;;8.50;93.40;;;;;;5040015;28;20303;-71
2022/09/21 00:17:46;;;;;;;15.80;4.60;;;8.50;93.30;;;;;;5043988;28;20200;-70
2022/09/21 00:20:13;;;;;;;6.33;4.30;;;8.40;93.20;;;;;;5044712;28;20445;-70
2022/09/21 00:22:38;;;;;;;11.60;4.70;;;8.40;93.40;;;;;;5046134;28;20493;-70
2022/09/21 00:25:05;;;;;;;11.90;4.90;;;8.40;93.30;;;;;;5042626;28;20964;-70
2022/09/21 00:27:30;;;;;;;7.50;4.17;;;8.40;93.30;;;;;;5045876;28;20442;-70
2022/09/21 00:29:57;;;;;;;9.00;4.83;;;8.40;93.30;;;;;;5043922;28;20497;-70
2022/09/21 00:32:24;;;;;;;9.50;4.10;;;8.40;93.20;;;;;;5043799;28;20558;-70
2022/09/21 00:34:50;;;;;;;10.50;4.73;;;8.30;93.10;;;;;;5035939;28;20981;-71
2022/09/21 00:37:17;;;;;;;8.17;4.40;;;8.30;93.40;;;;;;5044787;28;20457;-70
2022/09/21 00:39:43;;;;;;;9.10;4.40;;;8.30;93.30;;;;;;5048074;28;20502;-70
2022/09/21 00:42:23;;;;;;;7.70;4.13;;;8.30;92.90;;;;;;5042820;28;20865;-70
2022/09/21 00:44:48;;;;;;;9.03;4.97;;;8.10;92.70;;;;;;5039988;28;20542;-70
2022/09/21 00:47:37;;;;;;;8.23;4.60;;;7.90;92.70;;;;;;5043065;28;20439;-70
2022/09/21 00:50:12;;;;;;;9.27;4.77;;;7.80;93.10;;;;;;5050016;28;20200;-70
2022/09/21 00:52:56;;;;;;;9.13;5.07;;;7.70;93.50;;;;;;5039009;28;20433;-71
2022/09/21 00:55:31;;;;;;;5.87;4.53;;;7.60;93.70;;;;;;5042198;28;20459;-70
2022/09/21 00:58:01;;;;;;;9.70;4.80;;;7.60;93.90;;;;;;5046482;28;20423;-71
2022/09/21 01:00:27;;;;;;;7.73;4.27;;;7.70;94.10;;;;;;5047201;28;20462;-69
2022/09/21 01:03:00;;;;;;;6.50;4.70;;;7.70;94.20;;;;;;5048150;28;20435;-71
2022/09/21 01:05:26;;;;;;;12.60;5.37;;;7.70;94.20;;;;;;5042425;28;20200;-72
2022/09/21 01:07:53;;;;;;;7.80;4.53;;;7.70;94.40;;;;;;5042657;28;20506;-70
2022/09/21 01:10:19;;;;;;;9.33;4.97;;;7.80;94.60;;;;;;5042924;28;20573;-71
2022/09/21 01:13:23;;;;;;;11.53;5.40;;;7.80;94.60;;;;;;5042221;28;20419;-70
2022/09/21 01:16:06;;;;;;;8.90;5.57;;;7.80;94.60;;;;;;5020731;28;20512;-71
2022/09/21 01:19:10;;;;;;;13.30;5.63;;;7.90;94.50;;;;;;5042418;28;20444;-71
2022/09/21 01:21:49;;;;;;;7.90;4.60;;;7.90;94.50;;;;;;5030260;28;20431;-70
2022/09/21 01:24:40;;;;;;;8.70;4.37;;;7.80;94.40;;;;;;5040606;28;20419;-71
2022/09/21 01:27:11;;;;;;;7.83;3.90;;;7.90;94.30;;;;;;5045438;28;20446;-71
2022/09/21 01:30:01;;;;;;;8.83;4.00;;;7.80;94.00;;;;;;5036721;28;20806;-71
2022/09/21 01:32:38;;;;;;;8.57;5.13;;;7.70;94.00;;;;;;5042727;28;20422;-71
2022/09/21 01:35:12;;;;;;;7.30;5.20;;;7.70;94.00;;;;;;5034827;28;20446;-72
2022/09/21 01:37:46;;;;;;;8.57;4.33;;;7.60;94.00;;;;;;5046768;28;20423;-72
2022/09/21 01:40:20;;;;;;;7.30;4.27;;;7.60;94.20;;;;;;5048813;28;20469;-73
2022/09/21 01:42:48;;;;;;;7.60;4.53;;;7.60;94.10;;;;;;5042946;28;20415;-71
2022/09/21 01:45:17;;;;;;;9.03;5.00;;;7.70;94.10;;;;;;5039902;28;20464;-71
2022/09/21 01:47:46;;;;;;;9.30;5.00;;;7.60;94.00;;;;;;5046590;28;20499;-71
2022/09/21 01:50:13;;;;;;;8.57;4.80;;;7.50;94.20;;;;;;5042461;28;20458;-71
2022/09/21 01:52:48;;;;;;;14.77;5.20;;;7.50;94.30;;;;;;5052168;28;20429;-71
2022/09/21 01:55:21;;;;;;;11.37;5.60;;;7.50;94.30;;;;;;5039859;28;20571;-70
2022/09/21 01:58:12;;;;;;;7.30;4.10;;;7.50;94.60;;;;;;5045793;28;20818;-71
2022/09/21 02:00:40;;;;;;;8.30;4.10;;;7.50;94.70;;;;;;5047095;28;20991;-71
2022/09/21 02:03:20;;;;;;;11.17;5.00;;;7.50;94.50;;;;;;5040435;28;20526;-71
2022/09/21 02:05:46;;;;;;;9.07;4.97;;;7.50;93.70;;;;;;5044389;28;20980;-72
2022/09/21 02:08:12;;;;;;;11.83;4.10;;;7.50;93.50;;;;;;5044235;28;20521;-71
2022/09/21 02:10:50;;;;;;;7.47;4.13;;;7.40;93.40;;;;;;5042296;28;20730;-70
2022/09/21 02:13:19;;;;;;;13.13;4.23;;;7.40;93.50;;;;;;5036944;28;20447;-71
2022/09/21 02:15:54;;;;;;;6.13;4.43;;;7.30;93.50;;;;;;5041221;28;20470;-72
2022/09/21 02:18:39;;;;;;;7.47;4.60;;;7.30;93.70;;;;;;5037770;28;20944;-70
2022/09/21 02:21:12;;;;;;;9.73;4.93;;;7.30;93.90;;;;;;5034380;28;20419;-72
2022/09/21 02:24:14;;;;;;;9.13;4.60;;;7.30;94.10;;;;;;5046156;28;20438;-72
2022/09/21 02:26:49;;;;;;;7.63;4.93;;;7.30;94.10;;;;;;5034997;28;20969;-71
2022/09/21 02:29:37;;;;;;;9.43;4.40;;;7.30;94.20;;;;;;5042465;28;20425;-72
2022/09/21 02:32:17;;;;;;;9.10;4.70;;;7.30;94.20;;;;;;5041701;28;20473;-71
2022/09/21 02:34:51;;;;;;;10.13;5.10;;;7.30;94.20;;;;;;5041179;28;20471;-71
2022/09/21 02:37:43;;;;;;;11.50;5.73;;;7.30;94.10;;;;;;5039499;28;20418;-69
2022/09/21 02:40:29;;;;;;;8.33;4.30;;;7.20;94.20;;;;;;5036678;28;20480;-69
2022/09/21 02:43:10;;;;;;;10.00;4.70;;;7.20;94.50;;;;;;5044421;28;20415;-70
2022/09/21 02:45:44;;;;;;;8.50;4.73;;;7.20;94.50;;;;;;5041531;28;20852;-72
2022/09/21 02:48:17;;;;;;;7.67;4.73;;;7.10;94.60;;;;;;5045058;28;21065;-70
2022/09/21 02:50:47;;;;;;;8.17;4.40;;;7.10;94.80;;;;;;5036915;28;20497;-71
2022/09/21 02:53:19;;;;;;;9.90;5.70;;;7.20;94.70;;;;;;5044430;28;20423;-72
2022/09/21 02:55:45;;;;;;;10.10;4.90;;;7.10;94.60;;;;;;5043408;28;20550;-71
2022/09/21 02:58:13;;;;;;;11.10;5.97;;;7.10;94.60;;;;;;5039875;28;20449;-70
2022/09/21 03:00:39;;;;;;;9.70;5.33;;;7.10;94.60;;;;;;5034685;28;20505;-70
2022/09/21 03:03:34;;;;;;;14.70;6.00;;;7.10;94.90;;;;;;5034788;28;20423;-72
2022/09/21 03:06:01;;;;;;;13.83;6.67;;;7.20;94.90;;;;;;4984773;28;21037;-71
2022/09/21 03:08:26;;;;;;;13.80;6.10;;;7.20;95.00;;;;;;4988446;28;20456;-70
2022/09/21 03:10:52;;;;;;;16.27;4.97;;;7.20;95.10;;;;;;5001880;28;20999;-71
2022/09/21 03:13:18;;;;;;;10.33;5.97;;;7.20;95.20;;;;;;4988436;28;20422;-69
2022/09/21 03:15:45;;;;;;;11.93;5.93;;;7.20;95.20;;;;;;4970042;28;20465;-72
2022/09/21 03:18:11;;;;;;;7.97;4.97;;;7.20;95.00;;;;;;4988033;28;20493;-71
2022/09/21 03:20:39;;;;;;;7.27;4.03;;;7.10;95.00;;;;;;4987343;28;20835;-72
2022/09/21 03:23:05;;;;;;;11.13;4.30;;;7.10;94.90;;;;;;4988173;28;20468;-71
2022/09/21 03:25:32;;;;;;;10.20;4.53;;;7.10;94.00;;;;;;4989171;28;20895;-72
2022/09/21 03:27:58;;;;;;;9.53;4.87;;;7.00;93.40;;;;;;4987089;28;20425;-72
2022/09/21 03:30:25;;;;;;;8.57;4.70;;;6.90;93.40;;;;;;4989227;28;20476;-72
2022/09/21 03:32:52;;;;;;;8.00;4.70;;;6.80;93.60;;;;;;4987882;28;20471;-70
2022/09/21 03:35:20;;;;;;;13.93;5.60;;;6.70;93.80;;;;;;4969788;28;20461;-72
2022/09/21 03:37:47;;;;;;;8.40;4.80;;;6.70;93.90;;;;;;4988037;28;20506;-72
2022/09/21 03:40:13;;;;;;;10.77;4.70;;;6.70;94.40;;;;;;4990968;28;20422;-70
2022/09/21 03:42:40;;;;;;;10.43;6.00;;;6.70;94.50;;;;;;5027489;28;20422;-71
2022/09/21 03:45:06;;;;;;;15.17;5.70;;;6.60;94.70;;;;;;5039739;28;20438;-71
2022/09/21 03:47:32;;;;;;;12.13;6.57;;;6.50;95.00;;;;;;5046770;28;20451;-71
2022/09/21 03:49:58;;;;;;;8.77;5.63;;;6.50;95.10;;;;;;5046884;28;20502;-71
2022/09/21 03:52:23;;;;;;;10.63;5.93;;;6.50;95.40;;;;;;5045735;28;20176;-72
2022/09/21 03:54:49;;;;;;;12.20;5.67;;;6.50;95.50;;;;;;5042515;28;20188;-70
2022/09/21 03:57:14;;;;;;;12.30;6.20;;;6.50;95.50;;;;;;5049453;28;20185;-72
2022/09/21 03:59:40;;;;;;;10.73;6.30;;;6.60;95.60;;;;;;5050376;28;20185;-71
2022/09/21 04:02:06;;;;;;;12.00;6.60;;;6.60;95.60;;;;;;5046347;28;20214;-72
2022/09/21 04:04:32;;;;;;;15.57;7.73;;;6.60;95.60;;;;;;5047549;28;20447;-71
2022/09/21 04:06:58;;;;;;;14.90;7.00;;;6.60;95.80;;;;;;5047663;28;20532;-72
2022/09/21 04:09:24;;;;;;;14.60;8.03;;;6.60;95.80;;;;;;5043667;28;20252;-72
2022/09/21 04:11:51;;;;;;;13.20;6.60;;;6.60;95.80;;;;;;5046833;28;20900;-72
2022/09/21 04:14:17;;;;;;;13.90;7.40;;;6.60;95.90;;;;;;5044519;28;20206;-72
2022/09/21 04:16:43;;;;;;;19.00;8.40;;;6.70;95.90;;;;;;5044380;28;20482;-70
2022/09/21 04:19:09;;;;;;;14.87;7.40;;;6.70;95.90;;;;;;5041983;28;20439;-70
2022/09/21 04:21:34;;;;;;;17.00;9.03;;;6.70;96.00;;;;;;5046032;28;20436;-71
2022/09/21 04:24:00;;;;;;;15.13;7.10;;;6.70;96.00;;;;;;5051687;28;20191;-73
2022/09/21 04:26:31;;;;;;;22.20;9.20;;;6.70;96.00;;;;;;5050242;28;20220;-72
2022/09/21 04:28:57;;;;;;;14.80;8.70;;;6.80;96.20;;;;;;5064859;28;20420;-72
2022/09/21 04:31:24;;;;;;;19.73;7.60;;;6.80;96.30;;;;;;5060856;28;20462;-72
2022/09/21 04:33:51;;;;;;;14.83;7.90;;;6.90;96.30;;;;;;5041330;28;20660;-71
2022/09/21 04:36:18;;;;;;;19.03;8.10;;;6.90;96.30;;;;;;5046759;28;20454;-72
2022/09/21 04:38:44;;;;;;;15.23;8.77;;;6.90;96.10;;;;;;5049753;28;20426;-72
2022/09/21 04:41:11;;;;;;;18.77;7.33;;;6.90;95.70;;;;;;5055177;28;20423;-70
2022/09/21 04:43:36;;;;;;;19.43;9.80;;;6.90;95.50;;;;;;5051176;28;20422;-72
2022/09/21 04:46:08;;;;;;;18.00;9.13;;;6.90;95.40;;;;;;5040327;28;20454;-71
2022/09/21 04:48:34;;;;;;;18.30;8.37;;;6.90;95.40;;;;;;5045122;28;20177;-72
2022/09/21 04:51:00;;;;;;;23.40;9.20;;;6.90;95.40;;;;;;5041475;28;20462;-74
2022/09/21 04:53:26;;;;;;;19.30;10.00;;;6.90;95.40;;;;;;5046239;28;20446;-73
2022/09/21 04:55:51;;;;;;;19.20;8.87;;;6.80;95.30;;;;;;5041149;28;20447;-74
2022/09/21 04:58:17;;;;;;;15.53;9.17;;;6.80;95.40;;;;;;5046107;28;20534;-73
2022/09/21 05:00:42;;;;;;;18.40;9.97;;;6.80;95.50;;;;;;5038620;28;20196;-73
2022/09/21 05:03:08;;;;;;;10.73;6.63;;;6.80;95.50;;;;;;5049606;28;20322;-76
2022/09/21 05:05:34;;;;;;;12.17;6.87;;;6.90;95.50;;;;;;5038033;28;20255;-75
2022/09/21 05:07:59;;;;;;;12.87;7.30;;;6.90;95.10;;;;;;5048052;28;20838;-74
2022/09/21 05:10:25;;;;;;;14.90;6.90;;;6.70;94.70;;;;;;5042059;28;20748;-70
2022/09/21 05:12:51;;;;;;;12.33;7.40;;;6.60;94.70;;;;;;5046562;28;20189;-71
2022/09/21 05:15:17;;;;;;;15.30;8.40;;;6.50;94.70;;;;;;5042509;28;20236;-71
2022/09/21 05:17:43;;;;;;;19.17;9.03;;;6.40;94.90;;;;;;5044872;28;20817;-71
2022/09/21 05:20:10;;;;;;;16.07;7.83;;;6.40;94.90;;;;;;5042119;28;20420;-72
2022/09/21 05:22:36;;;;;;;20.23;8.67;;;6.40;95.00;;;;;;5048158;28;20223;-70
2022/09/21 05:25:01;;;;;;;21.60;8.10;;;6.40;95.10;;;;;;5041495;28;20420;-71
2022/09/21 05:27:27;;;;;;;17.10;7.50;;;6.40;95.20;;;;;;5048092;28;20523;-71
2022/09/21 05:29:53;;;;;;;14.53;8.10;;;6.50;95.40;;;;;;5041595;28;20208;-71
2022/09/21 05:32:18;;;;;;;22.23;9.57;;;6.50;95.10;;;;;;5047174;28;20173;-71
2022/09/21 05:34:56;;;;;;;21.73;8.03;;;6.50;94.90;;;;;;5040681;28;20180;-70
2022/09/21 05:37:58;;;;;;;16.00;8.50;;;6.50;94.90;;;;;;5039078;28;20191;-71
2022/09/21 05:40:24;;;;;;;26.53;9.33;;;6.50;94.90;;;;;;5042487;28;20425;-72
2022/09/21 05:42:50;;;;;;;14.67;7.80;;;6.50;95.00;;;;;;5039190;28;20430;-70
2022/09/21 05:45:17;;;;;;;21.50;10.87;;;6.60;95.00;;;;;;5040357;28;20550;-71
2022/09/21 05:48:16;;;;;;;22.47;10.43;;;6.60;94.90;;;;;;5043987;28;20422;-71
2022/09/21 05:51:02;;;;;;;25.43;10.80;;;6.70;94.90;;;;;;5039609;28;20467;-71
2022/09/21 05:53:37;;;;;;;17.93;10.17;;;6.70;94.80;;;;;;5045796;28;20926;-71
2022/09/21 05:56:12;;;;;;;16.03;9.30;;;6.70;94.80;;;;;;5046907;28;20504;-72
2022/09/21 05:59:00;;;;;;;17.73;8.70;;;6.70;94.70;;;;;;5040562;28;20425;-70
2022/09/21 06:01:35;;;;;;;20.70;9.93;;;6.70;94.60;;;;;;5042889;28;20567;-70
2022/09/21 06:04:01;;;;;;;18.13;10.00;;;6.80;94.60;;;;;;5045407;28;20431;-72
2022/09/21 06:06:27;;;;;;;19.07;9.37;;;6.80;94.70;;;;;;5043987;28;20537;-71
2022/09/21 06:08:52;;;;;;;23.83;10.60;;;6.80;94.70;;;;;;5040454;28;20620;-72
2022/09/21 06:11:18;;;;;;;17.67;9.10;;;6.80;94.90;;;;;;5044949;28;20196;-72
2022/09/21 06:13:44;;;;;;;15.73;8.03;;;6.80;95.00;;;;;;5047287;28;20177;-71
2022/09/21 06:16:10;;;;;;;15.30;8.70;;;6.90;95.10;;;;;;5042417;28;20211;-71
2022/09/21 06:18:40;;;;;;;16.40;8.70;;;6.80;95.10;;;;;;5046568;28;20458;-71
2022/09/21 06:21:06;;;;;;;25.97;11.57;;;6.90;95.20;;;;;;5037705;28;20446;-71
2022/09/21 06:23:31;;;;;;;18.10;9.70;;;7.00;95.30;;;;;;5041105;28;20432;-71
2022/09/21 06:25:57;;;;;;;20.80;10.50;;;7.00;95.30;;;;;;5035413;28;20492;-72
2022/09/21 06:28:23;;;;;;;19.07;10.47;;;7.10;95.20;;;;;;5043011;28;20188;-71
2022/09/21 06:30:52;;;;;;;20.80;10.00;;;7.00;95.10;;;;;;5038892;28;20200;-72
2022/09/21 06:33:22;;;;;;;24.93;11.87;;;7.10;95.10;;;;;;5043618;28;20173;-72
2022/09/21 06:35:56;;;;;;;24.77;10.70;;;7.20;95.00;;;;;;5041988;28;20777;-71
2022/09/21 06:38:22;;;;;;;19.60;9.87;;;7.20;95.00;;;;;;5043209;28;20415;-71
2022/09/21 06:40:48;;;;;;;21.67;11.00;;;7.20;94.90;;;;;;5045282;28;20477;-72
2022/09/21 06:43:14;;;;;;;19.53;11.10;;;7.30;95.00;;;;;;5041533;28;20419;-72
2022/09/21 06:45:39;;;;;;;24.03;9.90;;;7.40;94.90;;;;;;5034502;28;20262;-72
2022/09/21 06:48:05;;;;;;;21.23;12.10;;;7.40;94.80;;;;;;5041520;28;20601;-71
2022/09/21 06:50:31;;;;;;;20.00;10.43;;;7.40;94.70;;;;;;5039441;28;20591;-71
2022/09/21 06:52:59;;;;;;;20.17;9.90;;;7.50;94.60;;;;;;5038789;28;20185;-71
2022/09/21 06:55:25;;;;;;;18.80;11.63;;;7.60;94.30;;;;;;5034597;28;20463;-71
2022/09/21 06:57:50;;;;;;;20.50;11.53;;;7.60;94.20;;;;;;5037985;28;20466;-71
2022/09/21 07:00:16;;;;;;;25.23;12.20;;;7.70;94.10;;;;;;5044917;28;20180;-71
2022/09/21 07:02:43;;;;;;;20.93;10.40;;;7.70;94.10;;;;;;5038541;28;20268;-70
2022/09/21 07:05:09;;;;;;;22.77;10.23;;;7.70;94.10;;;;;;5043171;28;20216;-71
2022/09/21 07:07:35;;;;;;;22.87;10.90;;;7.80;94.10;;;;;;5041397;28;20781;-71
2022/09/21 07:10:01;;;;;;;21.07;10.87;;;7.90;94.00;;;;;;5048179;28;20239;-72
2022/09/21 07:12:28;;;;;;;21.00;11.73;;;7.90;93.80;;;;;;5041600;28;20586;-71
2022/09/21 07:14:54;;;;;;;23.70;11.97;;;8.00;93.60;;;;;;5043909;28;20473;-71
2022/09/21 07:17:20;;;;;;;22.63;10.27;;;8.10;93.50;;;;;;5035166;28;20954;-70
2022/09/21 07:19:46;;;;;;;22.87;10.20;;;8.10;93.20;;;;;;5040390;28;20205;-70
2022/09/21 07:22:11;;;;;;;19.97;11.03;;;8.10;93.20;;;;;;5036882;28;21018;-69
2022/09/21 07:24:37;;;;;;;31.03;11.77;;;8.10;93.30;;;;;;5040222;28;20515;-70
2022/09/21 07:27:03;;;;;;;22.87;12.03;;;8.20;93.30;;;;;;5039222;28;20677;-69
2022/09/21 07:29:29;;;;;;;24.37;11.70;;;8.30;93.30;;;;;;5042258;28;20208;-70
2022/09/21 07:31:55;;;;;;;25.13;11.90;;;8.40;92.90;;;;;;5041317;28;20282;-70
2022/09/21 07:34:20;;;;;;;20.50;10.60;;;8.30;92.40;;;;;;5043385;28;20889;-70
2022/09/21 07:36:46;;;;;;;17.20;10.80;;;8.40;92.60;;;;;;5039830;28;20203;-70
2022/09/21 07:39:11;;;;;;;20.27;10.83;;;8.40;92.30;;;;;;5043499;28;20211;-70
2022/09/21 07:41:37;;;;;;;18.60;11.17;;;8.50;92.40;;;;;;5040505;28;20184;-70
2022/09/21 07:44:03;;;;;;;21.17;10.90;;;8.70;92.20;;;;;;5043792;28;20221;-71
2022/09/21 07:46:29;;;;;;;19.40;10.63;;;8.80;91.90;;;;;;5044653;28;20968;-71
2022/09/21 07:48:55;;;;;;;19.80;10.60;;;8.90;91.60;;;;;;5041775;28;20440;-70
2022/09/21 07:51:22;;;;;;;25.93;11.00;;;9.00;91.50;;;;;;5042572;28;20208;-70
2022/09/21 07:53:52;;;;;;;21.77;10.00;;;9.10;91.30;;;;;;5040805;28;20505;-70
2022/09/21 07:56:18;;;;;;;18.90;11.10;;;9.10;91.30;;;;;;5037825;28;20504;-70
2022/09/21 08:01:29;;;;;;;17.63;10.50;;;9.20;91.30;;;;;;5040216;28;20778;-71
2022/09/21 08:03:56;;;;;;;25.00;10.07;;;9.30;91.20;;;;;;5036727;28;20434;-71
2022/09/21 08:06:24;;;;;;;19.40;9.60;;;9.40;91.10;;;;;;5036009;28;20551;-69
2022/09/21 08:08:50;;;;;;;19.93;9.97;;;9.50;90.70;;;;;;5040917;28;20494;-69
2022/09/21 08:11:18;;;;;;;22.80;10.47;;;9.60;90.30;;;;;;5045620;28;20637;-71
2022/09/21 08:13:44;;;;;;;19.60;10.17;;;9.60;90.00;;;;;;5047089;28;20209;-71
2022/09/21 08:16:10;;;;;;;18.10;10.00;;;9.70;90.10;;;;;;5044120;28;20933;-71
2022/09/21 08:18:37;;;;;;;19.67;9.00;;;9.80;89.50;;;;;;5035777;28;20517;-71
2022/09/21 08:21:03;;;;;;;20.17;9.80;;;9.90;88.90;;;;;;5043308;28;20234;-71
2022/09/21 08:23:29;;;;;;;18.93;9.33;;;10.00;88.40;;;;;;5038997;28;20844;-71
2022/09/21 08:26:02;;;;;;;17.43;8.97;;;10.00;88.10;;;;;;5041227;28;20654;-71
2022/09/21 08:28:29;;;;;;;23.13;9.50;;;10.10;87.80;;;;;;5044933;28;20442;-70
2022/09/21 08:31:06;;;;;;;18.03;9.10;;;10.20;87.70;;;;;;5051310;28;20875;-71
2022/09/21 08:33:32;;;;;;;21.73;9.73;;;10.30;87.70;;;;;;5044573;28;20425;-71
2022/09/21 08:35:59;;;;;;;19.90;10.23;;;10.40;86.80;;;;;;5038934;28;20819;-71
2022/09/21 08:38:25;;;;;;;18.93;8.67;;;10.30;86.60;;;;;;5044736;28;20192;-70
2022/09/21 08:40:52;;;;;;;15.60;8.30;;;10.40;86.80;;;;;;5040843;28;20502;-70
2022/09/21 08:43:35;;;;;;;16.57;8.67;;;10.40;86.60;;;;;;5044683;28;20188;-71
2022/09/21 08:46:05;;;;;;;17.47;8.80;;;10.50;86.20;;;;;;5047201;28;21012;-71
2022/09/21 08:48:36;;;;;;;19.60;9.13;;;10.60;85.90;;;;;;5043331;28;20415;-72
2022/09/21 08:51:07;;;;;;;16.70;8.60;;;10.70;85.70;;;;;;5044394;28;20573;-71
2022/09/21 08:53:45;;;;;;;17.10;7.50;;;10.80;85.50;;;;;;5046091;28;20915;-71
2022/09/21 08:56:13;;;;;;;16.50;8.80;;;10.90;84.90;;;;;;5040528;28;21340;-72
2022/09/21 08:58:40;;;;;;;12.90;7.43;;;11.00;84.60;;;;;;5047467;28;20888;-72
2022/09/21 09:01:26;;;;;;;17.40;9.10;;;11.10;84.60;;;;;;5039851;28;20422;-71
2022/09/21 09:04:16;;;;;;;19.23;8.00;;;11.20;84.00;;;;;;5044679;28;20435;-71
2022/09/21 09:07:00;;;;;;;12.80;7.07;;;11.40;83.70;;;;;;5040907;28;20680;-71
2022/09/21 09:09:43;;;;;;;15.70;6.87;;;11.50;83.10;;;;;;5041758;28;20477;-72
2022/09/21 09:12:14;;;;;;;10.50;6.10;;;11.50;83.00;;;;;;5049641;28;20634;-72
2022/09/21 09:14:49;;;;;;;12.30;6.17;;;11.50;82.50;;;;;;5041008;28;20447;-71
2022/09/21 09:17:45;;;;;;;14.50;5.73;;;11.60;82.70;;;;;;5047154;28;20913;-71
2022/09/21 09:20:16;;;;;;;10.30;5.07;;;11.60;82.20;;;;;;5041128;28;20809;-72
2022/09/21 09:22:48;;;;;;;8.40;5.40;;;11.70;81.90;;;;;;5044359;28;20503;-71
2022/09/21 09:25:20;;;;;;;12.00;4.87;;;11.70;81.90;;;;;;5039838;28;20871;-71
2022/09/21 09:27:50;;;;;;;7.70;4.90;;;11.80;81.90;;;;;;5039130;28;20534;-71
2022/09/21 09:30:20;;;;;;;12.97;5.43;;;11.80;81.50;;;;;;5043238;28;20653;-71
2022/09/21 09:32:55;;;;;;;11.03;4.83;;;11.90;81.40;;;;;;5049116;28;20417;-71
2022/09/21 09:35:35;;;;;;;6.93;4.07;;;11.90;81.70;;;;;;5041534;28;20462;-71
2022/09/21 09:38:10;;;;;;;9.17;5.20;;;12.10;81.20;;;;;;5039186;28;20415;-71
2022/09/21 09:41:00;;;;;;;6.40;4.57;;;12.10;80.30;;;;;;5041918;28;20423;-72
2022/09/21 09:43:45;;;;;;;12.93;5.47;;;12.20;80.30;;;;;;5047045;28;20462;-71
2022/09/21 09:46:45;;;;;;;9.20;4.60;;;12.30;80.20;;;;;;5048222;28;20489;-72
2022/09/21 09:49:31;;;;;;;9.47;5.10;;;12.40;79.30;;;;;;5026384;28;20437;-72
2022/09/21 09:51:57;;;;;;;7.73;4.57;;;12.40;79.20;;;;;;5044311;28;20435;-71
2022/09/21 09:54:26;;;;;;;8.33;4.90;;;12.50;79.00;;;;;;5050718;28;21179;-73
2022/09/21 09:56:54;;;;;;;7.37;4.53;;;12.60;78.90;;;;;;5048690;28;20800;-72
2022/09/21 09:59:41;;;;;;;8.03;4.23;;;12.60;78.40;;;;;;5049236;28;20834;-71
2022/09/21 10:02:28;;;;;;;6.87;3.30;;;12.50;78.10;;;;;;5044121;28;20418;-71
2022/09/21 10:05:04;;;;;;;7.90;4.17;;;12.60;77.60;;;;;;5040692;28;20957;-73
2022/09/21 10:07:47;;;;;;;6.97;3.73;;;12.60;77.10;;;;;;5038742;28;20759;-71
2022/09/21 10:10:28;;;;;;;6.53;3.33;;;12.70;76.80;;;;;;5036684;28;20467;-70
2022/09/21 10:13:01;;;;;;;3.97;2.70;;;12.70;76.50;;;;;;5047286;28;20625;-71
2022/09/21 10:15:27;;;;;;;6.20;2.93;;;12.80;76.10;;;;;;5040143;28;20832;-71
2022/09/21 10:18:05;;;;;;;8.37;3.33;;;12.90;75.50;;;;;;5050100;28;20431;-71
2022/09/21 10:20:31;;;;;;;3.87;2.90;;;13.00;75.20;;;;;;5039690;28;20423;-71
2022/09/21 10:22:59;;;;;;;8.67;4.57;;;13.10;73.90;;;;;;5050587;28;20419;-71
2022/09/21 10:25:25;;;;;;;9.50;2.83;;;13.20;74.00;;;;;;5041703;28;20466;-70
2022/09/21 10:27:51;;;;;;;6.30;3.43;;;13.40;73.70;;;;;;5046941;28;20492;-71
2022/09/21 10:30:31;;;;;;;7.63;2.53;;;13.50;72.70;;;;;;5050660;28;20271;-71
2022/09/21 10:32:58;;;;;;;4.83;3.10;;;13.60;72.30;;;;;;5049085;28;20793;-71
2022/09/21 10:35:25;;;;;;;4.57;2.77;;;13.70;71.60;;;;;;5044088;28;20529;-71
2022/09/21 10:38:10;;;;;;;4.90;3.10;;;13.80;70.40;;;;;;5046003;28;20510;-70
2022/09/21 10:40:37;;;;;;;11.07;4.50;;;14.10;71.30;;;;;;5044862;28;20434;-71
2022/09/21 10:43:03;;;;;;;4.00;2.83;;;14.00;71.00;;;;;;5044798;28;20450;-70
2022/09/21 10:45:31;;;;;;;7.67;2.70;;;14.00;71.10;;;;;;5042579;28;20486;-70
2022/09/21 10:48:15;;;;;;;2.87;1.60;;;14.20;70.20;;;;;;5040140;28;20542;-71
2022/09/21 10:50:47;;;;;;;1.77;1.60;;;14.80;68.00;;;;;;5043521;28;20459;-71
2022/09/21 10:53:27;;;;;;;4.60;1.80;;;15.20;65.60;;;;;;5040463;28;20413;-71
2022/09/21 10:55:52;;;;;;;2.47;1.80;;;15.60;64.10;;;;;;5047297;28;20455;-71
2022/09/21 10:58:18;;;;;;;2.50;1.60;;;15.50;64.50;;;;;;5048223;28;21016;-71
2022/09/21 11:00:50;;;;;;;4.47;1.90;;;15.60;63.80;;;;;;5048071;28;20557;-70
2022/09/21 11:03:34;;;;;;;1.83;1.60;;;15.60;63.80;;;;;;5042477;28;20188;-71
2022/09/21 11:06:39;;;;;;;2.10;1.60;;;15.50;62.80;;;;;;5041513;28;20545;-71
2022/09/21 11:09:26;;;;;;;2.30;1.50;;;15.30;63.90;;;;;;5044444;28;20479;-70
2022/09/21 11:12:15;;;;;;;3.60;1.97;;;15.20;64.80;;;;;;5037350;28;20514;-70
2022/09/21 11:15:09;;;;;;;3.63;1.47;;;15.20;65.10;;;;;;5041920;28;20907;-71
2022/09/21 11:17:42;;;;;;;2.83;1.60;;;15.20;64.40;;;;;;5037807;28;20484;-71
2022/09/21 11:20:20;;;;;;;3.37;1.93;;;15.20;63.40;;;;;;5037226;28;20947;-71
2022/09/21 11:22:57;;;;;;;5.30;2.20;;;15.30;63.90;;;;;;5039639;28;20417;-71
2022/09/21 11:25:37;;;;;;;9.60;2.80;;;15.30;64.70;;;;;;5037235;28;20547;-70
2022/09/21 11:28:12;;;;;;;4.20;1.97;;;15.40;64.10;;;;;;5040501;28;20422;-71
2022/09/21 11:31:13;;;;;;;4.33;2.30;;;15.20;65.70;;;;;;5038727;28;20459;-71
2022/09/21 11:34:03;;;;;;;3.43;2.60;;;15.20;67.50;;;;;;5046329;28;20406;-70
2022/09/21 11:36:43;;;;;;;5.00;3.00;;;15.20;67.60;;;;;;5045167;28;20451;-71
2022/09/21 11:39:26;;;;;;;4.83;2.73;;;15.10;67.70;;;;;;5039081;28;20411;-72
2022/09/21 11:42:24;;;;;;;4.40;1.80;;;14.90;68.00;;;;;;5038659;28;20540;-72
2022/09/21 11:44:54;;;;;;;4.23;1.87;;;14.80;67.30;;;;;;5039531;28;20411;-72
2022/09/21 11:47:44;;;;;;;2.67;2.10;;;14.80;66.60;;;;;;5043355;28;20946;-71
2022/09/21 11:50:33;;;;;;;4.80;2.50;;;14.80;66.60;;;;;;5041046;28;20820;-72
2022/09/21 11:53:15;;;;;;;9.67;2.20;;;14.90;66.00;;;;;;5038097;28;20455;-71
2022/09/21 11:55:56;;;;;;;8.40;2.00;;;15.10;64.70;;;;;;5039013;28;20539;-72
2022/09/21 11:58:36;;;;;;;11.70;2.23;;;15.40;63.80;;;;;;5035822;28;20419;-70
2022/09/21 12:01:39;;;;;;;6.43;1.80;;;15.40;63.40;;;;;;5048441;28;20711;-71
2022/09/21 12:04:17;;;;;;;2.63;1.30;;;15.30;62.00;;;;;;5039365;28;20910;-70
2022/09/21 12:06:51;;;;;;;3.23;1.70;;;15.40;62.60;;;;;;5041885;28;20457;-71
2022/09/21 12:09:20;;;;;;;4.30;1.57;;;16.00;61.00;;;;;;5040622;28;20857;-70
2022/09/21 12:11:58;;;;;;;4.70;1.57;;;16.50;59.50;;;;;;5041829;28;20945;-71
2022/09/21 12:14:49;;;;;;;2.97;1.50;;;16.90;58.00;;;;;;5043854;28;20426;-71
2022/09/21 12:17:49;;;;;;;2.60;1.50;;;17.20;56.80;;;;;;5043616;28;20513;-73
2022/09/21 12:20:30;;;;;;;1.77;1.43;;;17.00;55.70;;;;;;5044099;28;20511;-71
2022/09/21 12:23:01;;;;;;;2.27;1.50;;;17.00;55.70;;;;;;5046455;28;20837;-69
2022/09/21 12:25:39;;;;;;;5.23;1.50;;;16.80;56.10;;;;;;5047242;28;20535;-70
2022/09/21 12:28:09;;;;;;;4.43;1.73;;;16.60;56.80;;;;;;5052085;28;20502;-72
2022/09/21 12:30:38;;;;;;;2.70;1.77;;;16.60;57.60;;;;;;5050311;28;20473;-70
2022/09/21 12:33:13;;;;;;;3.33;1.80;;;16.80;56.80;;;;;;5049583;28;20429;-71
2022/09/21 12:35:49;;;;;;;1.67;1.40;;;16.90;55.70;;;;;;5044514;28;20458;-71
2022/09/21 12:38:36;;;;;;;4.17;2.30;;;17.20;54.60;;;;;;5045592;28;20438;-72
2022/09/21 12:41:25;;;;;;;2.10;1.37;;;17.20;54.80;;;;;;5042633;28;20781;-70
2022/09/21 12:44:14;;;;;;;1.43;1.33;;;17.20;54.40;;;;;;5044529;28;20434;-69
2022/09/21 12:46:48;;;;;;;3.57;1.50;;;17.00;55.00;;;;;;5044684;28;20488;-71
2022/09/21 12:49:18;;;;;;;1.83;1.40;;;17.40;54.90;;;;;;5041071;28;21035;-70
2022/09/21 12:51:49;;;;;;;2.37;1.50;;;18.10;54.00;;;;;;5043223;28;20830;-71
2022/09/21 12:54:45;;;;;;;2.20;1.30;;;19.00;51.00;;;;;;5040888;28;20420;-72
2022/09/21 12:57:30;;;;;;;2.63;1.60;;;19.20;48.50;;;;;;5044978;28;20467;-71
2022/09/21 13:00:02;;;;;;;2.63;1.30;;;18.60;49.50;;;;;;5046580;28;20435;-70
2022/09/21 13:02:47;;;;;;;1.90;1.13;;;18.70;49.80;;;;;;5045929;28;20480;-70
2022/09/21 13:05:32;;;;;;;4.03;1.50;;;18.40;50.70;;;;;;5043050;28;20459;-69
2022/09/21 13:08:16;;;;;;;3.00;1.33;;;18.30;51.20;;;;;;5046290;28;20455;-72
2022/09/21 13:10:54;;;;;;;1.87;1.63;;;18.40;51.20;;;;;;5046905;28;20877;-70
2022/09/21 13:13:50;;;;;;;3.60;1.60;;;18.40;50.70;;;;;;5043497;28;20445;-70
2022/09/21 13:16:27;;;;;;;2.23;1.80;;;18.00;50.70;;;;;;5039068;28;20450;-69